FDX371 KMEM-KMAF
Flight info
| Callsign | FDX371 |
|---|---|
| Flight time | 1h 38m |
| Altitude | 34000 |
| Route | CHLDR5 ANSWA LITTR MEEOW FUZ ABI PERAE |
| Aircraft | B763/H-SDFHIRWXY/S |
Departure
| Time | 2026-04-22 09:50 |
|---|---|
| Airport | Memphis International Airport (KMEM) |
Arrival
| Time | 2026-04-22 11:28 |
|---|---|
| Airport | Midland International Air and Space Port (KMAF) |
| Time | Latitude | Longitude | Altitude | Speed | Heading |
|---|---|---|---|---|---|
| 2026-04-22 09:30 | 35.06022 | -89.97274 | 264 ft | 0 kts | 2° |
| 2026-04-22 09:42 | 35.06008 | -89.97274 | 264 ft | 2 kts | 0° |
| 2026-04-22 09:42 | 35.05991 | -89.97274 | 265 ft | 2 kts | 2° |
| 2026-04-22 09:42 | 35.05976 | -89.97275 | 265 ft | 2 kts | 2° |
| 2026-04-22 09:43 | 35.05962 | -89.97275 | 265 ft | 2 kts | 348° |
| 2026-04-22 09:43 | 35.05947 | -89.97266 | 265 ft | 2 kts | 320° |
| 2026-04-22 09:43 | 35.05936 | -89.97252 | 266 ft | 2 kts | 296° |
| 2026-04-22 09:43 | 35.05932 | -89.97235 | 266 ft | 2 kts | 275° |
| 2026-04-22 09:44 | 35.05932 | -89.97228 | 266 ft | 0 kts | 271° |
| 2026-04-22 09:46 | 35.05932 | -89.97236 | 266 ft | 3 kts | 273° |
| 2026-04-22 09:46 | 35.05934 | -89.97290 | 266 ft | 10 kts | 273° |
| 2026-04-22 09:46 | 35.05937 | -89.97403 | 265 ft | 18 kts | 272° |
| 2026-04-22 09:46 | 35.05876 | -89.97497 | 264 ft | 22 kts | 170° |
| 2026-04-22 09:47 | 35.05736 | -89.97484 | 267 ft | 25 kts | 181° |
| 2026-04-22 09:48 | 35.05367 | -89.97617 | 276 ft | 0 kts | 178° |
| 2026-04-22 09:48 | 35.05364 | -89.97617 | 276 ft | 4 kts | 178° |
| 2026-04-22 09:48 | 35.05261 | -89.97613 | 279 ft | 33 kts | 179° |
| 2026-04-22 09:49 | 35.04892 | -89.97606 | 287 ft | 75 kts | 179° |
| 2026-04-22 09:49 | 35.04159 | -89.97590 | 304 ft | 124 kts | 179° |
| 2026-04-22 09:49 | 35.03012 | -89.97567 | 331 ft | 173 kts | 179° |
| 2026-04-22 09:49 | 35.01518 | -89.97522 | 821 ft | 186 kts | 179° |
| 2026-04-22 09:50 | 35.00018 | -89.97488 | 1432 ft | 196 kts | 186° |
| 2026-04-22 09:50 | 34.98496 | -89.98077 | 1825 ft | 202 kts | 207° |
| 2026-04-22 09:50 | 34.97012 | -89.99131 | 2142 ft | 213 kts | 212° |
| 2026-04-22 09:50 | 34.95589 | -90.00192 | 2382 ft | 229 kts | 215° |
| 2026-04-22 09:51 | 34.94429 | -90.01833 | 2709 ft | 244 kts | 247° |
| 2026-04-22 09:51 | 34.94168 | -90.04371 | 3404 ft | 249 kts | 268° |
| 2026-04-22 09:51 | 34.94172 | -90.07119 | 4149 ft | 252 kts | 266° |
| 2026-04-22 09:51 | 34.94165 | -90.09661 | 4866 ft | 253 kts | 266° |
| 2026-04-22 09:52 | 34.94116 | -90.12005 | 5522 ft | 254 kts | 261° |
| 2026-04-22 09:52 | 34.93934 | -90.14403 | 6210 ft | 255 kts | 261° |
| 2026-04-22 09:52 | 34.93765 | -90.16784 | 6867 ft | 257 kts | 261° |
| 2026-04-22 09:52 | 34.93599 | -90.19187 | 7506 ft | 260 kts | 261° |
| 2026-04-22 09:53 | 34.93433 | -90.21616 | 8175 ft | 262 kts | 262° |
| 2026-04-22 09:53 | 34.93284 | -90.24036 | 8796 ft | 266 kts | 263° |
| 2026-04-22 09:53 | 34.93143 | -90.26574 | 9441 ft | 269 kts | 263° |
| 2026-04-22 09:53 | 34.92991 | -90.29252 | 9982 ft | 277 kts | 263° |
| 2026-04-22 09:54 | 34.92854 | -90.31640 | 10342 ft | 289 kts | 264° |
| 2026-04-22 09:54 | 34.92709 | -90.34162 | 10524 ft | 308 kts | 264° |
| 2026-04-22 09:54 | 34.92558 | -90.36815 | 10734 ft | 326 kts | 264° |
| 2026-04-22 09:54 | 34.92403 | -90.39516 | 10959 ft | 343 kts | 264° |
| 2026-04-22 09:55 | 34.92237 | -90.42414 | 11491 ft | 350 kts | 264° |
| 2026-04-22 09:55 | 34.92065 | -90.45403 | 12049 ft | 357 kts | 264° |
| 2026-04-22 09:55 | 34.91889 | -90.48428 | 12654 ft | 361 kts | 265° |
| 2026-04-22 09:55 | 34.91713 | -90.51460 | 13377 ft | 361 kts | 265° |
| 2026-04-22 09:56 | 34.91535 | -90.54515 | 14004 ft | 364 kts | 265° |
| 2026-04-22 09:56 | 34.91355 | -90.57582 | 14625 ft | 367 kts | 265° |
| 2026-04-22 09:56 | 34.91172 | -90.60679 | 15239 ft | 369 kts | 266° |
| 2026-04-22 09:56 | 34.90987 | -90.63797 | 15827 ft | 372 kts | 266° |
| 2026-04-22 09:57 | 34.90802 | -90.66919 | 16382 ft | 375 kts | 265° |
| 2026-04-22 09:57 | 34.90614 | -90.70065 | 16992 ft | 377 kts | 265° |
| 2026-04-22 09:57 | 34.90379 | -90.73256 | 17611 ft | 378 kts | 261° |
| 2026-04-22 09:57 | 34.89910 | -90.76406 | 18222 ft | 379 kts | 259° |
| 2026-04-22 09:58 | 34.89455 | -90.79421 | 18760 ft | 382 kts | 260° |
| 2026-04-22 09:58 | 34.88970 | -90.82608 | 19261 ft | 386 kts | 261° |
| 2026-04-22 09:58 | 34.88479 | -90.85832 | 19747 ft | 391 kts | 261° |
| 2026-04-22 09:58 | 34.87984 | -90.89072 | 20313 ft | 393 kts | 261° |
| 2026-04-22 09:59 | 34.87485 | -90.92331 | 20847 ft | 396 kts | 261° |
| 2026-04-22 09:59 | 34.86989 | -90.95567 | 21359 ft | 398 kts | 261° |
| 2026-04-22 09:59 | 34.86481 | -90.98873 | 21884 ft | 401 kts | 261° |
| 2026-04-22 09:59 | 34.85971 | -91.02182 | 22392 ft | 404 kts | 261° |
| 2026-04-22 10:00 | 34.85520 | -91.05107 | 22822 ft | 406 kts | 261° |
| 2026-04-22 10:00 | 34.84964 | -91.08707 | 23342 ft | 409 kts | 261° |
| 2026-04-22 10:00 | 34.84440 | -91.12091 | 23826 ft | 412 kts | 261° |
| 2026-04-22 10:00 | 34.83920 | -91.15439 | 24296 ft | 415 kts | 261° |
| 2026-04-22 10:01 | 34.83486 | -91.18228 | 24647 ft | 417 kts | 261° |
| 2026-04-22 10:01 | 34.83007 | -91.21307 | 25045 ft | 420 kts | 261° |
| 2026-04-22 10:01 | 34.82346 | -91.25546 | 25560 ft | 424 kts | 261° |
| 2026-04-22 10:01 | 34.81769 | -91.29234 | 26003 ft | 428 kts | 261° |
| 2026-04-22 10:02 | 34.81212 | -91.32790 | 26426 ft | 431 kts | 261° |
| 2026-04-22 10:02 | 34.80649 | -91.36373 | 26853 ft | 434 kts | 261° |
| 2026-04-22 10:02 | 34.80082 | -91.39977 | 27239 ft | 438 kts | 261° |
| 2026-04-22 10:02 | 34.79508 | -91.43619 | 27654 ft | 441 kts | 261° |
| 2026-04-22 10:03 | 34.78930 | -91.47274 | 28064 ft | 444 kts | 261° |
| 2026-04-22 10:03 | 34.78388 | -91.50699 | 28437 ft | 447 kts | 261° |
| 2026-04-22 10:03 | 34.77211 | -91.58112 | 29214 ft | 453 kts | 261° |
| 2026-04-22 10:04 | 34.76633 | -91.61746 | 29598 ft | 456 kts | 261° |
| 2026-04-22 10:04 | 34.76029 | -91.65527 | 29971 ft | 459 kts | 261° |
| 2026-04-22 10:04 | 34.75415 | -91.69366 | 30341 ft | 462 kts | 261° |
| 2026-04-22 10:04 | 34.74803 | -91.73190 | 30663 ft | 466 kts | 261° |
| 2026-04-22 10:05 | 34.74181 | -91.77063 | 31004 ft | 470 kts | 261° |
| 2026-04-22 10:05 | 34.73578 | -91.80933 | 31339 ft | 473 kts | 262° |
| 2026-04-22 10:05 | 34.72973 | -91.84836 | 31652 ft | 477 kts | 262° |
| 2026-04-22 10:05 | 34.72369 | -91.88732 | 31977 ft | 480 kts | 262° |
| 2026-04-22 10:06 | 34.71762 | -91.92629 | 32358 ft | 481 kts | 262° |
| 2026-04-22 10:06 | 34.71154 | -91.96528 | 32758 ft | 482 kts | 262° |
| 2026-04-22 10:06 | 34.70540 | -92.00453 | 33139 ft | 483 kts | 262° |
| 2026-04-22 10:06 | 34.69929 | -92.04359 | 33449 ft | 485 kts | 262° |
| 2026-04-22 10:07 | 34.69310 | -92.08302 | 33824 ft | 485 kts | 262° |
| 2026-04-22 10:07 | 34.68765 | -92.11760 | 34119 ft | 486 kts | 261° |
| 2026-04-22 10:07 | 34.67466 | -92.19052 | 34205 ft | 489 kts | 255° |
| 2026-04-22 10:08 | 34.65423 | -92.26968 | 34210 ft | 485 kts | 254° |
| 2026-04-22 10:08 | 34.63442 | -92.34557 | 34213 ft | 486 kts | 254° |
| 2026-04-22 10:09 | 34.61549 | -92.41763 | 34212 ft | 486 kts | 254° |
| 2026-04-22 10:09 | 34.59621 | -92.49078 | 34212 ft | 486 kts | 254° |
| 2026-04-22 10:10 | 34.57523 | -92.57008 | 34213 ft | 487 kts | 254° |
| 2026-04-22 10:10 | 34.55448 | -92.64828 | 34213 ft | 486 kts | 254° |
| 2026-04-22 10:11 | 34.53399 | -92.72528 | 34214 ft | 486 kts | 254° |
| 2026-04-22 10:11 | 34.51336 | -92.80259 | 34213 ft | 486 kts | 254° |
| 2026-04-22 10:12 | 34.49222 | -92.88158 | 34214 ft | 486 kts | 254° |
| 2026-04-22 10:12 | 34.47098 | -92.96070 | 34208 ft | 487 kts | 254° |
| 2026-04-22 10:13 | 34.45020 | -93.03789 | 34199 ft | 487 kts | 254° |
| 2026-04-22 10:13 | 34.43117 | -93.10840 | 34186 ft | 487 kts | 253° |
| 2026-04-22 10:14 | 34.40979 | -93.18740 | 34180 ft | 488 kts | 253° |
| 2026-04-22 10:14 | 34.38875 | -93.26489 | 34180 ft | 487 kts | 253° |
| 2026-04-22 10:15 | 34.36788 | -93.34157 | 34181 ft | 487 kts | 253° |
| 2026-04-22 10:15 | 34.34695 | -93.41822 | 34181 ft | 487 kts | 253° |
| 2026-04-22 10:16 | 34.32590 | -93.49514 | 34181 ft | 487 kts | 253° |
| 2026-04-22 10:16 | 34.30053 | -93.57027 | 34184 ft | 489 kts | 247° |
| 2026-04-22 10:17 | 34.27326 | -93.64439 | 34182 ft | 489 kts | 247° |
| 2026-04-22 10:17 | 34.24583 | -93.71839 | 34183 ft | 489 kts | 247° |
| 2026-04-22 10:18 | 34.21819 | -93.79267 | 34186 ft | 489 kts | 247° |
| 2026-04-22 10:18 | 34.19055 | -93.86675 | 34190 ft | 489 kts | 247° |
| 2026-04-22 10:19 | 34.16304 | -93.94029 | 34192 ft | 489 kts | 247° |
| 2026-04-22 10:19 | 34.13611 | -94.01213 | 34190 ft | 489 kts | 247° |
| 2026-04-22 10:20 | 34.10943 | -94.08314 | 34186 ft | 489 kts | 247° |
| 2026-04-22 10:20 | 34.08492 | -94.14825 | 34181 ft | 489 kts | 246° |
| 2026-04-22 10:21 | 34.05835 | -94.21868 | 34182 ft | 489 kts | 246° |
| 2026-04-22 10:21 | 34.03088 | -94.29132 | 34182 ft | 490 kts | 246° |
| 2026-04-22 10:22 | 34.00209 | -94.36730 | 34183 ft | 490 kts | 246° |
| 2026-04-22 10:22 | 33.97352 | -94.44253 | 34179 ft | 485 kts | 246° |
| 2026-04-22 10:23 | 33.94542 | -94.51634 | 34183 ft | 484 kts | 246° |
| 2026-04-22 10:23 | 33.91777 | -94.58882 | 34183 ft | 484 kts | 246° |
| 2026-04-22 10:24 | 33.88999 | -94.66148 | 34184 ft | 482 kts | 246° |
| 2026-04-22 10:24 | 33.86253 | -94.73316 | 34185 ft | 481 kts | 246° |
| 2026-04-22 10:25 | 33.83488 | -94.80515 | 34185 ft | 479 kts | 246° |
| 2026-04-22 10:25 | 33.80890 | -94.87267 | 34183 ft | 479 kts | 246° |
| 2026-04-22 10:26 | 33.78091 | -94.94527 | 34179 ft | 478 kts | 246° |
| 2026-04-22 10:26 | 33.75384 | -95.01532 | 34176 ft | 477 kts | 246° |
| 2026-04-22 10:27 | 33.72708 | -95.08442 | 34175 ft | 477 kts | 246° |
| 2026-04-22 10:27 | 33.70193 | -95.14926 | 34173 ft | 477 kts | 245° |
| 2026-04-22 10:28 | 33.67577 | -95.21653 | 34175 ft | 477 kts | 245° |
| 2026-04-22 10:28 | 33.64725 | -95.28975 | 34174 ft | 478 kts | 245° |
| 2026-04-22 10:29 | 33.61819 | -95.36417 | 34174 ft | 478 kts | 245° |
| 2026-04-22 10:29 | 33.58860 | -95.43978 | 34175 ft | 478 kts | 245° |
| 2026-04-22 10:30 | 33.56083 | -95.51060 | 34176 ft | 478 kts | 245° |
| 2026-04-22 10:30 | 33.53427 | -95.57820 | 34177 ft | 479 kts | 245° |
| 2026-04-22 10:31 | 33.50615 | -95.64959 | 34180 ft | 480 kts | 245° |
| 2026-04-22 10:31 | 33.47866 | -95.71927 | 34181 ft | 479 kts | 245° |
| 2026-04-22 10:32 | 33.45119 | -95.78874 | 34184 ft | 479 kts | 245° |
| 2026-04-22 10:32 | 33.42801 | -95.84726 | 34182 ft | 478 kts | 245° |
| 2026-04-22 10:33 | 33.40269 | -95.91106 | 34183 ft | 478 kts | 245° |
| 2026-04-22 10:33 | 33.37408 | -95.98299 | 34183 ft | 477 kts | 245° |
| 2026-04-22 10:34 | 33.34543 | -96.05489 | 34178 ft | 476 kts | 245° |
| 2026-04-22 10:34 | 33.31827 | -96.12291 | 34168 ft | 475 kts | 244° |
| 2026-04-22 10:35 | 33.29560 | -96.17957 | 34158 ft | 474 kts | 245° |
| 2026-04-22 10:35 | 33.26959 | -96.24449 | 34148 ft | 473 kts | 245° |
| 2026-04-22 10:36 | 33.24249 | -96.31197 | 34146 ft | 471 kts | 245° |
| 2026-04-22 10:36 | 33.21637 | -96.37690 | 34146 ft | 470 kts | 245° |
| 2026-04-22 10:37 | 33.17764 | -96.47295 | 34146 ft | 468 kts | 245° |
| 2026-04-22 10:38 | 33.15331 | -96.53318 | 34146 ft | 468 kts | 245° |
| 2026-04-22 10:38 | 33.12969 | -96.59150 | 34146 ft | 466 kts | 245° |
| 2026-04-22 10:39 | 33.10539 | -96.65142 | 34146 ft | 466 kts | 245° |
| 2026-04-22 10:39 | 33.08309 | -96.70633 | 34146 ft | 465 kts | 245° |
| 2026-04-22 10:40 | 33.06116 | -96.76023 | 34146 ft | 464 kts | 245° |
| 2026-04-22 10:40 | 33.04012 | -96.81186 | 34146 ft | 464 kts | 245° |
| 2026-04-22 10:41 | 33.01726 | -96.86788 | 34145 ft | 463 kts | 245° |
| 2026-04-22 10:41 | 32.99384 | -96.92518 | 34146 ft | 463 kts | 245° |
| 2026-04-22 10:42 | 32.97028 | -96.98273 | 34145 ft | 462 kts | 245° |
| 2026-04-22 10:42 | 32.94676 | -97.04008 | 34139 ft | 462 kts | 245° |
| 2026-04-22 10:43 | 32.92315 | -97.09756 | 34131 ft | 461 kts | 245° |
| 2026-04-22 10:43 | 32.90080 | -97.15200 | 34128 ft | 461 kts | 246° |
| 2026-04-22 10:44 | 32.88392 | -97.21818 | 34129 ft | 457 kts | 261° |
| 2026-04-22 10:44 | 32.87437 | -97.28621 | 34120 ft | 458 kts | 261° |
| 2026-04-22 10:45 | 32.86432 | -97.35706 | 34120 ft | 457 kts | 261° |
| 2026-04-22 10:45 | 32.85401 | -97.42938 | 34119 ft | 456 kts | 261° |
| 2026-04-22 10:46 | 32.84284 | -97.50743 | 34120 ft | 456 kts | 261° |
| 2026-04-22 10:46 | 32.83201 | -97.58268 | 34118 ft | 455 kts | 261° |
| 2026-04-22 10:47 | 32.82104 | -97.65863 | 34120 ft | 455 kts | 261° |
| 2026-04-22 10:47 | 32.80979 | -97.73620 | 34118 ft | 454 kts | 261° |
| 2026-04-22 10:48 | 32.79875 | -97.81192 | 34119 ft | 453 kts | 261° |
| 2026-04-22 10:48 | 32.78789 | -97.88612 | 34118 ft | 453 kts | 261° |
| 2026-04-22 10:49 | 32.77624 | -97.96542 | 34116 ft | 452 kts | 261° |
| 2026-04-22 10:49 | 32.76431 | -98.04614 | 34113 ft | 452 kts | 261° |
| 2026-04-22 10:50 | 32.75310 | -98.12176 | 34113 ft | 452 kts | 261° |
| 2026-04-22 10:50 | 32.74161 | -98.19885 | 34111 ft | 452 kts | 261° |
| 2026-04-22 10:51 | 32.72958 | -98.27921 | 34111 ft | 452 kts | 261° |
| 2026-04-22 10:51 | 32.71743 | -98.36005 | 34111 ft | 452 kts | 261° |
| 2026-04-22 10:52 | 32.70529 | -98.44041 | 34110 ft | 452 kts | 261° |
| 2026-04-22 10:52 | 32.69452 | -98.51143 | 34110 ft | 452 kts | 261° |
| 2026-04-22 10:53 | 32.68245 | -98.59067 | 34110 ft | 453 kts | 261° |
| 2026-04-22 10:53 | 32.67048 | -98.66898 | 34110 ft | 454 kts | 261° |
| 2026-04-22 10:54 | 32.65768 | -98.75226 | 34109 ft | 454 kts | 261° |
| 2026-04-22 10:54 | 32.64451 | -98.83757 | 34109 ft | 454 kts | 261° |
| 2026-04-22 10:55 | 32.63176 | -98.91983 | 34108 ft | 454 kts | 261° |
| 2026-04-22 10:55 | 32.61885 | -99.00272 | 34105 ft | 454 kts | 261° |
| 2026-04-22 10:56 | 32.60655 | -99.08135 | 34102 ft | 455 kts | 261° |
| 2026-04-22 10:56 | 32.59506 | -99.15445 | 34103 ft | 455 kts | 261° |
| 2026-04-22 10:57 | 32.58346 | -99.22795 | 34102 ft | 454 kts | 261° |
| 2026-04-22 10:57 | 32.57188 | -99.30112 | 34103 ft | 454 kts | 261° |
| 2026-04-22 10:58 | 32.56058 | -99.37217 | 34102 ft | 454 kts | 261° |
| 2026-04-22 10:58 | 32.54981 | -99.43970 | 34102 ft | 453 kts | 261° |
| 2026-04-22 10:59 | 32.53811 | -99.51282 | 34101 ft | 453 kts | 261° |
| 2026-04-22 10:59 | 32.52623 | -99.58671 | 34103 ft | 453 kts | 261° |
| 2026-04-22 11:00 | 32.51455 | -99.65911 | 34101 ft | 452 kts | 261° |
| 2026-04-22 11:00 | 32.50283 | -99.73144 | 34101 ft | 451 kts | 261° |
| 2026-04-22 11:01 | 32.49112 | -99.80344 | 34102 ft | 450 kts | 261° |
| 2026-04-22 11:01 | 32.47975 | -99.87509 | 34100 ft | 449 kts | 263° |
| 2026-04-22 11:02 | 32.47092 | -99.94781 | 34100 ft | 450 kts | 263° |
| 2026-04-22 11:02 | 32.46199 | -100.02046 | 34098 ft | 448 kts | 264° |
| 2026-04-22 11:03 | 32.45305 | -100.09261 | 34101 ft | 449 kts | 264° |
| 2026-04-22 11:03 | 32.44516 | -100.15602 | 34102 ft | 449 kts | 263° |
| 2026-04-22 11:03 | 32.44139 | -100.18621 | 33873 ft | 450 kts | 263° |
| 2026-04-22 11:04 | 32.43754 | -100.21689 | 33397 ft | 447 kts | 263° |
| 2026-04-22 11:04 | 32.43273 | -100.25524 | 32833 ft | 442 kts | 263° |
| 2026-04-22 11:04 | 32.42815 | -100.29162 | 32294 ft | 437 kts | 263° |
| 2026-04-22 11:04 | 32.42368 | -100.32704 | 31770 ft | 433 kts | 263° |
| 2026-04-22 11:05 | 32.41935 | -100.36128 | 31263 ft | 428 kts | 263° |
| 2026-04-22 11:05 | 32.41485 | -100.39677 | 30738 ft | 424 kts | 263° |
| 2026-04-22 11:05 | 32.41041 | -100.43178 | 30221 ft | 419 kts | 263° |
| 2026-04-22 11:05 | 32.40596 | -100.46674 | 29707 ft | 418 kts | 263° |
| 2026-04-22 11:06 | 32.40147 | -100.50202 | 29190 ft | 418 kts | 263° |
| 2026-04-22 11:06 | 32.39687 | -100.53798 | 28657 ft | 416 kts | 263° |
| 2026-04-22 11:06 | 32.39252 | -100.57192 | 28154 ft | 414 kts | 263° |
| 2026-04-22 11:06 | 32.38826 | -100.60514 | 27659 ft | 412 kts | 263° |
| 2026-04-22 11:07 | 32.38401 | -100.63809 | 27169 ft | 409 kts | 263° |
| 2026-04-22 11:07 | 32.37978 | -100.67090 | 26681 ft | 406 kts | 263° |
| 2026-04-22 11:07 | 32.37557 | -100.70351 | 26198 ft | 404 kts | 263° |
| 2026-04-22 11:07 | 32.37135 | -100.73609 | 25715 ft | 402 kts | 263° |
| 2026-04-22 11:08 | 32.36715 | -100.76847 | 25235 ft | 400 kts | 263° |
| 2026-04-22 11:08 | 32.36294 | -100.80085 | 24754 ft | 398 kts | 262° |
| 2026-04-22 11:08 | 32.35881 | -100.83254 | 24283 ft | 396 kts | 262° |
| 2026-04-22 11:08 | 32.35463 | -100.86456 | 23809 ft | 393 kts | 262° |
| 2026-04-22 11:09 | 32.35057 | -100.89556 | 23347 ft | 390 kts | 262° |
| 2026-04-22 11:09 | 32.34652 | -100.92642 | 22887 ft | 388 kts | 262° |
| 2026-04-22 11:09 | 32.34241 | -100.95771 | 22423 ft | 386 kts | 262° |
| 2026-04-22 11:09 | 32.33833 | -100.98872 | 21963 ft | 384 kts | 262° |
| 2026-04-22 11:10 | 32.33427 | -101.01953 | 21504 ft | 381 kts | 262° |
| 2026-04-22 11:10 | 32.33021 | -101.05025 | 21045 ft | 379 kts | 262° |
| 2026-04-22 11:10 | 32.32618 | -101.08067 | 20593 ft | 377 kts | 262° |
| 2026-04-22 11:10 | 32.32257 | -101.10790 | 20189 ft | 375 kts | 262° |
| 2026-04-22 11:11 | 32.32016 | -101.12606 | 19921 ft | 374 kts | 262° |
| 2026-04-22 11:11 | 32.31690 | -101.15061 | 19557 ft | 372 kts | 262° |
| 2026-04-22 11:11 | 32.31377 | -101.17415 | 19211 ft | 371 kts | 262° |
| 2026-04-22 11:11 | 32.31006 | -101.20197 | 18800 ft | 369 kts | 262° |
| 2026-04-22 11:12 | 32.30607 | -101.23182 | 18357 ft | 366 kts | 262° |
| 2026-04-22 11:12 | 32.30244 | -101.25894 | 17957 ft | 365 kts | 262° |
| 2026-04-22 11:12 | 32.29846 | -101.28858 | 17518 ft | 362 kts | 262° |
| 2026-04-22 11:12 | 32.29494 | -101.31479 | 17129 ft | 360 kts | 262° |
| 2026-04-22 11:13 | 32.29059 | -101.34711 | 16650 ft | 357 kts | 262° |
| 2026-04-22 11:13 | 32.28652 | -101.37729 | 16201 ft | 354 kts | 262° |
| 2026-04-22 11:13 | 32.28339 | -101.40050 | 15858 ft | 352 kts | 262° |
| 2026-04-22 11:13 | 32.27948 | -101.42940 | 15431 ft | 350 kts | 262° |
| 2026-04-22 11:14 | 32.27552 | -101.45860 | 14998 ft | 348 kts | 262° |
| 2026-04-22 11:14 | 32.27164 | -101.48722 | 14572 ft | 345 kts | 262° |
| 2026-04-22 11:14 | 32.26769 | -101.51625 | 14140 ft | 342 kts | 262° |
| 2026-04-22 11:14 | 32.26377 | -101.54508 | 13713 ft | 340 kts | 262° |
| 2026-04-22 11:15 | 32.26001 | -101.57257 | 13307 ft | 339 kts | 262° |
| 2026-04-22 11:15 | 32.25634 | -101.59945 | 12905 ft | 336 kts | 262° |
| 2026-04-22 11:15 | 32.25265 | -101.62639 | 12503 ft | 333 kts | 262° |
| 2026-04-22 11:15 | 32.24925 | -101.65118 | 12134 ft | 331 kts | 262° |
| 2026-04-22 11:16 | 32.24615 | -101.67380 | 11801 ft | 330 kts | 262° |
| 2026-04-22 11:16 | 32.24266 | -101.69927 | 11418 ft | 328 kts | 262° |
| 2026-04-22 11:16 | 32.23879 | -101.72741 | 10985 ft | 326 kts | 262° |
| 2026-04-22 11:16 | 32.23512 | -101.75402 | 10578 ft | 323 kts | 261° |
| 2026-04-22 11:17 | 32.23157 | -101.77974 | 10180 ft | 321 kts | 261° |
| 2026-04-22 11:17 | 32.22811 | -101.80476 | 9798 ft | 318 kts | 260° |
| 2026-04-22 11:17 | 32.22449 | -101.83088 | 9404 ft | 315 kts | 259° |
| 2026-04-22 11:17 | 32.22117 | -101.85489 | 9053 ft | 312 kts | 258° |
| 2026-04-22 11:18 | 32.21768 | -101.87997 | 8688 ft | 309 kts | 258° |
| 2026-04-22 11:18 | 32.21422 | -101.90475 | 8351 ft | 305 kts | 258° |
| 2026-04-22 11:18 | 32.21089 | -101.92871 | 8022 ft | 295 kts | 258° |
| 2026-04-22 11:18 | 32.20766 | -101.95195 | 7744 ft | 274 kts | 257° |
| 2026-04-22 11:19 | 32.20470 | -101.97330 | 7559 ft | 258 kts | 256° |
| 2026-04-22 11:19 | 32.20170 | -101.99443 | 7443 ft | 265 kts | 257° |
| 2026-04-22 11:19 | 32.19870 | -102.01575 | 7303 ft | 261 kts | 257° |
| 2026-04-22 11:19 | 32.19578 | -102.03661 | 7165 ft | 259 kts | 256° |
| 2026-04-22 11:20 | 32.19285 | -102.05752 | 7024 ft | 258 kts | 258° |
| 2026-04-22 11:20 | 32.19338 | -102.07721 | 6896 ft | 266 kts | 280° |
| 2026-04-22 11:20 | 32.19932 | -102.09807 | 6759 ft | 271 kts | 287° |
| 2026-04-22 11:20 | 32.20579 | -102.11825 | 6552 ft | 270 kts | 285° |
| 2026-04-22 11:21 | 32.21244 | -102.13872 | 6350 ft | 267 kts | 285° |
| 2026-04-22 11:21 | 32.21803 | -102.15580 | 6193 ft | 269 kts | 285° |
| 2026-04-22 11:21 | 32.22488 | -102.17678 | 6029 ft | 268 kts | 285° |
| 2026-04-22 11:21 | 32.22893 | -102.19679 | 5919 ft | 257 kts | 263° |
| 2026-04-22 11:22 | 32.22467 | -102.21639 | 5952 ft | 238 kts | 233° |
| 2026-04-22 11:22 | 32.21363 | -102.22897 | 5960 ft | 215 kts | 202° |
| 2026-04-22 11:22 | 32.19999 | -102.23344 | 5976 ft | 205 kts | 190° |
| 2026-04-22 11:22 | 32.18594 | -102.23639 | 5977 ft | 205 kts | 186° |
| 2026-04-22 11:23 | 32.17256 | -102.23422 | 5992 ft | 207 kts | 158° |
| 2026-04-22 11:23 | 32.15956 | -102.22854 | 5961 ft | 196 kts | 171° |
| 2026-04-22 11:23 | 32.14649 | -102.22620 | 5803 ft | 187 kts | 174° |
| 2026-04-22 11:23 | 32.13390 | -102.22431 | 5669 ft | 182 kts | 175° |
| 2026-04-22 11:24 | 32.12151 | -102.22267 | 5604 ft | 178 kts | 175° |
| 2026-04-22 11:24 | 32.10961 | -102.22121 | 5448 ft | 168 kts | 176° |
| 2026-04-22 11:24 | 32.09827 | -102.21991 | 5341 ft | 165 kts | 176° |
| 2026-04-22 11:24 | 32.08692 | -102.21867 | 5273 ft | 167 kts | 176° |
| 2026-04-22 11:25 | 32.07568 | -102.21747 | 5099 ft | 167 kts | 176° |
| 2026-04-22 11:25 | 32.06402 | -102.21624 | 4881 ft | 163 kts | 176° |
| 2026-04-22 11:25 | 32.05309 | -102.21510 | 4677 ft | 159 kts | 176° |
| 2026-04-22 11:25 | 32.04233 | -102.21399 | 4522 ft | 156 kts | 176° |
| 2026-04-22 11:26 | 32.03150 | -102.21288 | 4318 ft | 159 kts | 175° |
| 2026-04-22 11:26 | 32.02033 | -102.21175 | 4095 ft | 164 kts | 175° |
| 2026-04-22 11:26 | 32.01038 | -102.21072 | 3892 ft | 162 kts | 175° |
| 2026-04-22 11:26 | 31.99941 | -102.20958 | 3664 ft | 156 kts | 176° |
| 2026-04-22 11:27 | 31.98835 | -102.20847 | 3465 ft | 161 kts | 175° |
| 2026-04-22 11:27 | 31.97719 | -102.20738 | 3297 ft | 163 kts | 176° |
| 2026-04-22 11:27 | 31.96823 | -102.20652 | 3125 ft | 162 kts | 175° |
| 2026-04-22 11:27 | 31.95753 | -102.20535 | 2905 ft | 158 kts | 175° |
| 2026-04-22 11:28 | 31.94904 | -102.20446 | 2883 ft | 142 kts | 176° |
| 2026-04-22 11:28 | 31.94192 | -102.20378 | 2883 ft | 107 kts | 173° |
| 2026-04-22 11:28 | 31.93573 | -102.20312 | 2883 ft | 70 kts | 175° |
| 2026-04-22 11:28 | 31.93309 | -102.20304 | 2883 ft | 6 kts | 183° |
| 2026-04-22 11:29 | 31.93282 | -102.20295 | 2883 ft | 2 kts | 144° |
| 2026-04-22 11:29 | 31.93279 | -102.20292 | 2883 ft | 0 kts | 129° |
| 2026-04-22 11:29 | 31.93278 | -102.20287 | 2883 ft | 1 kts | 102° |
| 2026-04-22 11:29 | 31.93280 | -102.20279 | 2883 ft | 1 kts | 63° |
| 2026-04-22 11:30 | 31.93296 | -102.20275 | 2883 ft | 5 kts | 346° |
| 2026-04-22 11:30 | 31.93347 | -102.20313 | 2883 ft | 14 kts | 290° |
| 2026-04-22 11:30 | 31.93347 | -102.20434 | 2883 ft | 18 kts | 281° |
| 2026-04-22 11:30 | 31.93431 | -102.20482 | 2883 ft | 15 kts | 356° |
| 2026-04-22 11:31 | 31.93529 | -102.20490 | 2883 ft | 12 kts | 356° |
| 2026-04-22 11:31 | 31.93585 | -102.20509 | 2883 ft | 8 kts | 319° |
| 2026-04-22 11:31 | 31.93595 | -102.20552 | 2883 ft | 7 kts | 269° |
| 2026-04-22 11:31 | 31.93593 | -102.20615 | 2883 ft | 7 kts | 269° |
| 2026-04-22 11:32 | 31.93592 | -102.20671 | 2883 ft | 7 kts | 268° |
| 2026-04-22 11:32 | 31.93591 | -102.20699 | 2883 ft | 0 kts | 268° |